Time;durP1;ratioP1;P1;durP2;ratioP2;P2;SDS_P1;SDS_P2;PMS_P1;PMS_P2;Temp;Humidity;BMP_temperature;BMP_pressure;BME280_temperature;BME280_humidity;BME280_pressure;Samples;Min_cycle;Max_cycle;Signal;HPM_P1;HPM_P2
2022/10/30 00:00:04;;;;;;;;;12.33;12.33;;;;;19.04;58.70;101053.75;5036811;28;46345;-62
2022/10/30 00:02:29;;;;;;;;;13.67;10.67;;;;;19.02;58.74;101050.31;5040299;28;45482;-61
2022/10/30 00:04:55;;;;;;;;;12.67;12.67;;;;;18.97;58.81;101048.00;5021579;28;45249;-61
2022/10/30 00:07:20;;;;;;;;;12.67;11.67;;;;;18.97;58.72;101060.63;5028541;28;45269;-62
2022/10/30 00:09:45;;;;;;;;;16.67;13.00;;;;;18.88;58.76;101048.78;5042212;28;45366;-62
2022/10/30 00:12:11;;;;;;;;;15.00;13.33;;;;;18.91;59.16;101056.63;5026065;28;45283;-61
2022/10/30 00:14:36;;;;;;;;;13.00;11.67;;;;;18.91;59.16;101043.13;5041687;28;45588;-61
2022/10/30 00:17:02;;;;;;;;;14.67;9.00;;;;;18.86;59.28;101046.19;5032567;28;45456;-61
2022/10/30 00:19:27;;;;;;;;;18.00;13.33;;;;;18.89;59.41;101049.66;5022648;28;46069;-62
2022/10/30 00:21:53;;;;;;;;;20.00;13.33;;;;;18.86;59.60;101042.66;5022232;28;45378;-62
2022/10/30 00:24:18;;;;;;;;;17.33;15.33;;;;;18.77;59.42;101030.81;5023884;28;45479;-62
2022/10/30 00:26:44;;;;;;;;;15.33;12.33;;;;;18.82;59.71;101043.91;5037847;28;45398;-62
2022/10/30 00:29:09;;;;;;;;;7.67;6.33;;;;;18.79;60.00;101060.31;5042017;28;45487;-62
2022/10/30 00:31:34;;;;;;;;;11.33;11.00;;;;;18.73;59.77;101050.91;5040839;28;45411;-62
2022/10/30 00:34:00;;;;;;;;;17.00;16.00;;;;;18.74;60.00;101049.91;5042491;28;45457;-62
2022/10/30 00:36:25;;;;;;;;;13.67;13.67;;;;;18.77;60.05;101052.38;5041223;28;45992;-62
2022/10/30 00:38:51;;;;;;;;;13.67;13.67;;;;;18.78;59.90;101054.09;5022077;28;46028;-62
2022/10/30 00:41:19;;;;;;;;;16.00;14.00;;;;;18.76;59.88;101042.59;5019458;28;45396;-61
2022/10/30 00:43:44;;;;;;;;;20.67;13.00;;;;;18.77;59.90;101049.69;5041756;28;45312;-62
2022/10/30 00:46:42;;;;;;;;;14.67;11.67;;;;;18.72;59.66;101046.50;5031294;28;45382;-61
2022/10/30 00:49:15;;;;;;;;;14.00;14.00;;;;;18.72;59.67;101059.97;5035100;28;45501;-62
2022/10/30 00:51:47;;;;;;;;;14.67;12.67;;;;;18.61;60.09;101051.88;5026820;28;45972;-62
2022/10/30 00:54:15;;;;;;;;;13.67;12.00;;;;;18.64;59.86;101046.28;5022190;28;45364;-62
2022/10/30 00:56:42;;;;;;;;;15.00;14.00;;;;;18.68;60.19;101047.75;5020421;28;45277;-61
2022/10/30 00:59:12;;;;;;;;;16.33;14.00;;;;;18.72;59.66;101062.66;5023319;28;45509;-61
2022/10/30 01:01:41;;;;;;;;;13.00;11.33;;;;;18.70;59.80;101058.38;5024065;28;45292;-62
2022/10/30 01:04:07;;;;;;;;;12.00;10.67;;;;;18.73;59.63;101072.44;5041176;28;45468;-62
2022/10/30 01:06:35;;;;;;;;;5.00;1.00;;;;;18.70;60.17;101058.38;5029091;28;45428;-61
2022/10/30 01:09:02;;;;;;;;;21.67;17.00;;;;;18.69;60.00;101064.75;5006441;28;46125;-64
2022/10/30 01:11:28;;;;;;;;;20.67;15.67;;;;;18.69;60.03;101073.69;5021154;28;46025;-62
2022/10/30 01:13:58;;;;;;;;;16.67;15.00;;;;;18.66;60.41;101073.09;5019213;28;45289;-61
2022/10/30 01:16:32;;;;;;;;;15.67;15.67;;;;;18.63;60.30;101071.50;5018391;28;45581;-63
2022/10/30 01:19:03;;;;;;;;;12.67;12.67;;;;;18.59;61.33;101070.00;5035332;28;45508;-61
2022/10/30 01:21:37;;;;;;;;;15.00;15.00;;;;;18.57;61.21;101066.59;5039838;28;45300;-66
2022/10/30 01:24:31;;;;;;;;;17.33;15.00;;;;;18.56;61.28;101070.25;5039069;28;45335;-62
2022/10/30 01:27:05;;;;;;;;;22.00;20.00;;;;;18.55;61.61;101065.88;5018312;28;45463;-62
2022/10/30 01:30:01;;;;;;;;;18.00;15.33;;;;;18.52;61.68;101068.81;5018506;28;46348;-61
2022/10/30 01:33:17;;;;;;;;;18.00;16.33;;;;;18.46;62.25;101070.16;5016146;28;45536;-60
2022/10/30 01:35:47;;;;;;;;;17.67;15.67;;;;;18.40;62.59;101064.44;5004177;28;45271;-62
2022/10/30 01:38:30;;;;;;;;;23.00;17.00;;;;;18.37;62.36;101062.00;5005206;28;45676;-62
2022/10/30 01:40:56;;;;;;;;;18.33;18.33;;;;;18.38;62.27;101069.09;5019427;28;46565;-60
2022/10/30 01:43:21;;;;;;;;;14.67;14.00;;;;;18.39;62.21;101051.94;5018224;28;45285;-61
2022/10/30 01:46:01;;;;;;;;;18.33;17.00;;;;;18.34;62.24;101054.13;5018705;28;45306;-61
2022/10/30 01:48:49;;;;;;;;;18.67;15.33;;;;;18.30;62.45;101069.69;5018633;28;45264;-62
2022/10/30 01:51:33;;;;;;;;;17.00;14.00;;;;;18.24;62.37;101057.59;5018631;28;45343;-61
2022/10/30 01:54:17;;;;;;;;;16.67;14.67;;;;;18.20;62.21;101058.81;5037529;28;45347;-61
2022/10/30 01:57:02;;;;;;;;;16.00;16.00;;;;;18.17;62.32;101055.50;5023439;28;45425;-63
2022/10/30 01:59:36;;;;;;;;;20.33;14.33;;;;;18.09;62.50;101050.72;5018681;28;45596;-62
2022/10/30 02:02:02;;;;;;;;;5.67;5.33;;;;;18.14;62.29;101045.00;5017587;28;46148;-62
2022/10/30 02:04:28;;;;;;;;;12.67;12.67;;;;;18.12;62.29;101036.19;5017508;28;45426;-62
2022/10/30 02:06:53;;;;;;;;;14.33;14.33;;;;;18.09;62.18;101031.88;5017678;28;45329;-62
2022/10/30 02:09:19;;;;;;;;;16.00;14.67;;;;;18.09;62.57;101039.97;5035362;28;45331;-62
2022/10/30 02:11:46;;;;;;;;;16.33;13.67;;;;;18.07;62.20;101028.47;5037394;28;45378;-61
2022/10/30 02:14:17;;;;;;;;;13.00;11.67;;;;;18.05;62.33;101035.81;5037208;28;45422;-62
2022/10/30 02:16:50;;;;;;;;;11.67;11.67;;;;;17.99;62.45;101030.94;5035879;28;45319;-61
2022/10/30 02:19:16;;;;;;;;;11.67;11.67;;;;;17.96;62.35;101025.78;5019972;28;46036;-61
2022/10/30 02:21:41;;;;;;;;;12.00;11.00;;;;;17.99;62.38;101028.25;5016784;28;45506;-62
2022/10/30 02:24:07;;;;;;;;;12.33;10.33;;;;;18.01;62.32;101033.50;5019856;28;45332;-61
2022/10/30 02:26:33;;;;;;;;;15.33;12.00;;;;;17.99;62.26;101033.63;5037581;28;45514;-61
2022/10/30 02:28:58;;;;;;;;;15.33;13.33;;;;;17.91;62.56;101020.78;5021184;28;45259;-61
2022/10/30 02:31:24;;;;;;;;;12.00;12.00;;;;;17.99;62.25;101039.00;5036961;28;45628;-61
2022/10/30 02:33:49;;;;;;;;;11.67;10.00;;;;;17.96;62.81;101029.31;5032806;28;45207;-62
2022/10/30 02:36:14;;;;;;;;;16.33;14.33;;;;;18.01;62.24;101025.44;5027405;28;45418;-62
2022/10/30 02:38:41;;;;;;;;;12.67;12.00;;;;;17.99;62.36;101033.63;5017665;28;45481;-62
2022/10/30 02:41:06;;;;;;;;;11.33;10.67;;;;;17.98;62.33;101026.53;5028753;28;45496;-61
2022/10/30 02:43:32;;;;;;;;;17.33;14.00;;;;;17.97;62.47;101024.81;5036899;28;45737;-61
2022/10/30 02:45:58;;;;;;;;;17.67;14.67;;;;;17.96;62.66;101023.94;5037078;28;45367;-61
2022/10/30 02:48:23;;;;;;;;;24.00;16.00;;;;;17.97;62.72;101030.22;5024763;28;45616;-60
2022/10/30 02:50:48;;;;;;;;;12.67;10.00;;;;;18.00;62.56;101024.56;5017566;28;46345;-63
2022/10/30 02:53:14;;;;;;;;;15.67;12.33;;;;;17.99;62.46;101020.19;5017802;28;45445;-62
2022/10/30 02:55:39;;;;;;;;;15.33;13.67;;;;;18.01;62.41;101017.34;5018092;28;45474;-63
2022/10/30 02:58:05;;;;;;;;;13.33;12.33;;;;;17.98;62.39;101010.38;5037290;28;45544;-61
2022/10/30 03:00:30;;;;;;;;;15.67;13.67;;;;;18.00;62.29;101016.50;5033796;28;45857;-61
2022/10/30 03:02:56;;;;;;;;;13.33;12.00;;;;;17.99;62.75;101028.25;5028133;28;45414;-62
2022/10/30 03:05:22;;;;;;;;;16.00;14.33;;;;;17.99;62.30;101022.88;5036596;28;45408;-62
2022/10/30 03:07:47;;;;;;;;;13.33;13.33;;;;;17.93;62.61;101009.88;5036737;28;45232;-62
2022/10/30 03:10:13;;;;;;;;;12.33;12.33;;;;;17.94;62.62;101019.66;5028070;28;46167;-62
2022/10/30 03:12:39;;;;;;;;;17.67;13.00;;;;;17.89;62.76;101017.34;5015265;28;46056;-62
2022/10/30 03:15:05;;;;;;;;;15.67;15.67;;;;;17.92;62.80;101024.31;5026400;28;45424;-62
2022/10/30 03:17:30;;;;;;;;;14.00;10.67;;;;;17.90;62.70;101029.81;5052263;28;45442;-62
2022/10/30 03:19:56;;;;;;;;;15.33;14.00;;;;;17.89;62.87;101021.88;5036569;28;45348;-63
2022/10/30 03:22:21;;;;;;;;;13.67;11.67;;;;;17.86;62.89;101004.16;5036881;28;45312;-61
2022/10/30 03:24:46;;;;;;;;;12.67;12.33;;;;;17.90;63.03;101012.84;5026411;28;45278;-61
2022/10/30 03:27:12;;;;;;;;;14.67;11.33;;;;;17.89;62.96;101005.75;5017694;28;45373;-61
2022/10/30 03:29:37;;;;;;;;;19.33;16.00;;;;;17.79;62.94;100994.00;5014426;28;45486;-62
2022/10/30 03:32:03;;;;;;;;;13.33;11.67;;;;;17.79;62.58;100996.69;5023609;28;54408;-62
2022/10/30 03:34:29;;;;;;;;;11.67;11.00;;;;;17.88;62.70;101004.03;5043151;28;45346;-62
2022/10/30 03:36:54;;;;;;;;;17.67;14.33;;;;;17.82;62.68;100991.91;5025556;28;45331;-61
2022/10/30 03:39:19;;;;;;;;;12.67;12.67;;;;;17.90;62.45;101002.06;5037185;28;46865;-63
2022/10/30 03:41:45;;;;;;;;;14.67;13.33;;;;;17.83;62.92;100982.84;5037642;28;45424;-61
2022/10/30 03:44:10;;;;;;;;;14.67;10.00;;;;;17.84;62.83;100986.41;5029191;28;45315;-61
2022/10/30 03:46:36;;;;;;;;;16.00;12.33;;;;;17.86;62.89;100979.09;5020730;28;45565;-61
2022/10/30 03:49:02;;;;;;;;;11.67;11.00;;;;;17.94;62.77;100992.75;5029327;28;46524;-61
2022/10/30 03:51:27;;;;;;;;;4.33;1.33;;;;;17.98;62.63;101000.47;5040188;28;45462;-61
2022/10/30 03:53:52;;;;;;;;;16.00;12.00;;;;;17.98;62.54;100991.56;5033546;28;45292;-61
2022/10/30 03:56:18;;;;;;;;;17.67;14.00;;;;;17.89;62.30;100985.06;5035842;28;45578;-61
2022/10/30 03:58:44;;;;;;;;;8.67;8.67;;;;;17.91;62.37;100990.31;5035785;28;45480;-61
2022/10/30 04:01:10;;;;;;;;;19.00;12.00;;;;;17.94;62.65;100996.31;5022995;28;45494;-62
2022/10/30 04:03:35;;;;;;;;;12.00;10.67;;;;;17.87;62.67;100989.72;5027689;28;45248;-61
2022/10/30 04:06:00;;;;;;;;;15.00;14.00;;;;;17.86;63.48;100987.16;5035884;28;45618;-63
2022/10/30 04:08:26;;;;;;;;;14.00;12.67;;;;;17.84;63.18;100983.72;5034047;28;46104;-61
2022/10/30 04:10:51;;;;;;;;;13.00;12.33;;;;;17.87;63.00;100987.03;5016828;28;45805;-61
2022/10/30 04:13:19;;;;;;;;;16.33;15.33;;;;;17.79;63.56;100972.47;5014826;28;45339;-62
2022/10/30 04:15:48;;;;;;;;;13.67;13.67;;;;;17.82;63.91;100982.97;5015804;28;45402;-61
2022/10/30 04:18:15;;;;;;;;;22.33;16.33;;;;;17.80;63.79;100984.94;5015917;28;45194;-61
2022/10/30 04:20:40;;;;;;;;;14.00;14.00;;;;;17.79;63.49;100991.31;5032866;28;45378;-62
2022/10/30 04:23:09;;;;;;;;;13.67;13.33;;;;;17.82;63.62;100991.91;5035416;28;45469;-60
2022/10/30 04:25:35;;;;;;;;;15.67;15.00;;;;;17.80;63.85;100987.63;5051027;28;45400;-62
2022/10/30 04:28:01;;;;;;;;;16.33;15.67;;;;;17.77;63.63;100985.19;5035268;28;45460;-61
2022/10/30 04:30:27;;;;;;;;;20.67;15.67;;;;;17.72;63.86;100964.06;5032515;28;45458;-61
2022/10/30 04:32:54;;;;;;;;;18.00;14.67;;;;;17.72;63.99;100965.88;5012030;28;45575;-62
2022/10/30 04:35:23;;;;;;;;;18.67;15.00;;;;;17.67;64.02;100958.97;5022780;28;45407;-61
2022/10/30 04:37:56;;;;;;;;;11.33;9.33;;;;;17.60;64.23;100960.47;5051238;28;47104;-61
2022/10/30 04:40:24;;;;;;;;;15.67;14.00;;;;;17.57;63.84;100966.06;5034640;28;45378;-61
2022/10/30 04:42:50;;;;;;;;;15.67;14.33;;;;;17.57;63.77;100968.75;5021740;28;45417;-61
2022/10/30 04:45:16;;;;;;;;;12.33;11.33;;;;;17.53;64.13;100967.28;5035888;28;45484;-61
2022/10/30 04:47:42;;;;;;;;;14.33;13.67;;;;;17.55;64.11;100975.25;5038411;28;46261;-61
2022/10/30 04:50:08;;;;;;;;;16.33;13.33;;;;;17.54;64.15;100976.22;5038994;28;45374;-60
2022/10/30 04:52:33;;;;;;;;;13.33;11.00;;;;;17.48;64.60;100966.81;5022235;28;45344;-60
2022/10/30 04:54:59;;;;;;;;;16.00;12.33;;;;;17.43;64.31;100971.69;5034149;28;45300;-61
2022/10/30 04:57:24;;;;;;;;;18.67;14.00;;;;;17.34;64.57;100965.22;5018840;28;46243;-61
2022/10/30 04:59:50;;;;;;;;;19.00;14.67;;;;;17.30;64.93;100954.81;5026238;28;45266;-61
2022/10/30 05:02:18;;;;;;;;;15.33;14.00;;;;;17.36;64.49;100970.47;5038738;28;45364;-61
2022/10/30 05:04:44;;;;;;;;;14.67;11.33;;;;;17.31;64.66;100973.50;5053987;28;45430;-62
2022/10/30 05:07:09;;;;;;;;;13.67;13.67;;;;;17.29;65.03;100966.53;5020613;28;45644;-60
2022/10/30 05:09:35;;;;;;;;;17.00;16.00;;;;;17.24;65.03;100964.22;5018692;28;45627;-61
2022/10/30 05:12:00;;;;;;;;;12.67;10.67;;;;;17.22;65.00;100968.88;5038089;28;45841;-61
2022/10/30 05:14:30;;;;;;;;;18.00;15.33;;;;;17.19;65.46;100968.22;5037374;28;45859;-61
2022/10/30 05:16:56;;;;;;;;;18.00;13.67;;;;;17.13;65.53;100966.03;5038024;28;45275;-61
2022/10/30 05:19:21;;;;;;;;;18.33;15.00;;;;;17.02;65.47;100956.09;5054098;28;45335;-61
2022/10/30 05:21:47;;;;;;;;;23.00;14.00;;;;;17.07;65.50;100959.31;5037681;28;45216;-60
2022/10/30 05:24:12;;;;;;;;;15.33;15.00;;;;;17.02;65.60;100962.31;5030119;28;45685;-61
2022/10/30 05:26:37;;;;;;;;;16.67;13.33;;;;;16.96;66.06;100962.81;5026115;28;46066;-61
2022/10/30 05:29:03;;;;;;;;;3.33;2.33;;;;;17.00;65.61;100958.91;5034296;28;45566;-61
2022/10/30 05:31:28;;;;;;;;;14.00;12.67;;;;;16.96;66.00;100957.44;5025854;28;45750;-61
2022/10/30 05:33:54;;;;;;;;;11.00;11.00;;;;;16.94;66.14;100951.34;5025744;28;45328;-62
2022/10/30 05:36:19;;;;;;;;;13.33;9.00;;;;;16.90;66.31;100943.59;5037951;28;45374;-61
2022/10/30 05:38:45;;;;;;;;;16.67;13.67;;;;;16.88;66.26;100943.72;5038806;28;45354;-61
2022/10/30 05:41:11;;;;;;;;;11.67;11.00;;;;;16.86;66.26;100940.31;5038514;28;45273;-65
2022/10/30 05:43:36;;;;;;;;;15.33;14.00;;;;;16.88;66.37;100948.25;5031458;28;45411;-61
2022/10/30 05:46:02;;;;;;;;;19.67;16.33;;;;;16.71;66.78;100930.75;5020247;28;46225;-61
2022/10/30 05:48:27;;;;;;;;;13.67;13.67;;;;;16.86;66.21;100953.75;5017559;28;45525;-62
2022/10/30 05:50:55;;;;;;;;;15.33;12.00;;;;;16.85;66.75;100960.09;5017910;28;45318;-62
2022/10/30 05:53:20;;;;;;;;;16.00;14.00;;;;;16.84;66.76;100958.38;5018408;28;45340;-60
2022/10/30 05:55:46;;;;;;;;;14.00;14.00;;;;;16.84;66.85;100963.75;5017244;28;45427;-62
2022/10/30 05:58:11;;;;;;;;;16.50;14.00;;;;;16.81;67.02;100955.94;5036572;28;45505;-62
2022/10/30 06:00:38;;;;;;;;;11.33;11.33;;;;;16.77;66.74;100946.38;5024132;28;45609;-64
2022/10/30 06:03:06;;;;;;;;;15.33;14.00;;;;;16.79;67.11;100947.97;5037701;28;45279;-62
2022/10/30 06:05:34;;;;;;;;;15.33;11.00;;;;;16.75;67.20;100948.31;5037332;28;46280;-62
2022/10/30 06:08:00;;;;;;;;;11.67;11.00;;;;;16.66;67.34;100931.03;5037243;28;45459;-61
2022/10/30 06:10:26;;;;;;;;;12.33;10.67;;;;;16.71;67.20;100946.84;5037691;28;45206;-60
2022/10/30 06:13:03;;;;;;;;;13.33;13.33;;;;;16.71;67.39;100946.84;5037574;28;46627;-63
2022/10/30 06:15:29;;;;;;;;;15.00;9.67;;;;;16.70;67.45;100939.78;5031645;28;45422;-61
2022/10/30 06:17:55;;;;;;;;;10.33;10.00;;;;;16.73;67.37;100945.75;5028759;28;45505;-61
2022/10/30 06:20:24;;;;;;;;;14.00;14.00;;;;;16.74;67.44;100946.63;5033737;28;45306;-61
2022/10/30 06:23:04;;;;;;;;;11.00;11.00;;;;;16.65;67.43;100936.53;5016557;28;45533;-60
2022/10/30 06:25:33;;;;;;;;;11.33;11.00;;;;;16.74;67.20;100952.00;4996998;28;46343;-60
2022/10/30 06:27:58;;;;;;;;;14.67;11.33;;;;;16.65;67.31;100936.53;5005416;28;45274;-61
2022/10/30 06:30:25;;;;;;;;;13.00;13.00;;;;;16.69;67.98;100948.81;5016569;28;45248;-61
2022/10/30 06:33:01;;;;;;;;;14.00;11.67;;;;;16.68;67.89;100965.91;5016658;28;45182;-61
2022/10/30 06:35:27;;;;;;;;;12.67;11.33;;;;;16.62;67.65;100959.09;5028132;28;45469;-60
2022/10/30 06:37:54;;;;;;;;;19.00;14.00;;;;;16.67;67.66;100964.16;5036701;28;45379;-61
2022/10/30 06:40:19;;;;;;;;;15.00;14.00;;;;;16.66;67.62;100965.09;5048987;28;45383;-61
2022/10/30 06:42:46;;;;;;;;;17.00;13.00;;;;;16.64;67.66;100967.03;5037229;28;45585;-62
2022/10/30 06:45:13;;;;;;;;;13.33;13.33;;;;;16.63;67.82;100970.72;5035173;28;45545;-62
2022/10/30 06:47:39;;;;;;;;;15.67;12.67;;;;;16.68;67.51;100973.94;5032856;28;45313;-61
2022/10/30 06:50:07;;;;;;;;;12.33;12.33;;;;;16.64;67.78;100969.72;5028970;28;45461;-62
2022/10/30 06:52:32;;;;;;;;;15.00;11.00;;;;;16.65;67.87;100984.88;5022763;28;45673;-61
2022/10/30 06:54:58;;;;;;;;;16.67;14.33;;;;;16.61;67.90;100978.03;5016175;28;46068;-63
2022/10/30 06:57:23;;;;;;;;;16.00;13.00;;;;;16.66;67.84;100981.22;5017027;28;45332;-61
2022/10/30 06:59:49;;;;;;;;;15.67;13.67;;;;;16.59;68.01;100958.50;5025563;28;45637;-60
2022/10/30 07:02:14;;;;;;;;;13.00;12.00;;;;;16.67;67.70;100969.53;5018055;28;45386;-60
2022/10/30 07:04:40;;;;;;;;;10.67;10.67;;;;;16.64;67.74;100961.69;5017004;28;45399;-61
2022/10/30 07:07:05;;;;;;;;;5.67;5.33;;;;;16.72;67.64;100975.44;5029582;28;45516;-61
2022/10/30 07:09:31;;;;;;;;;13.33;11.67;;;;;16.70;67.82;100978.22;5025718;28;49026;-61
2022/10/30 07:11:56;;;;;;;;;16.67;16.67;;;;;16.68;67.78;100963.22;5037019;28;45315;-61
2022/10/30 07:14:21;;;;;;;;;15.33;14.00;;;;;16.69;67.95;100956.88;5035886;28;45452;-61
2022/10/30 07:16:47;;;;;;;;;13.33;13.00;;;;;16.67;67.65;100964.16;5022997;28;45448;-56
2022/10/30 07:19:12;;;;;;;;;15.00;13.00;;;;;16.70;67.83;100975.53;5007168;28;45333;-57
2022/10/30 07:21:38;;;;;;;;;15.33;14.00;;;;;16.70;67.85;100974.69;5002704;28;45307;-57
2022/10/30 07:24:04;;;;;;;;;14.67;14.00;;;;;16.71;67.84;100961.13;5029247;28;45511;-56
2022/10/30 07:26:29;;;;;;;;;15.00;13.00;;;;;16.73;67.98;100950.28;5016743;28;45379;-57
2022/10/30 07:28:55;;;;;;;;;14.00;12.33;;;;;16.74;67.99;100950.16;5025525;28;45462;-58
2022/10/30 07:31:20;;;;;;;;;17.33;14.00;;;;;16.69;67.46;100949.66;5032967;28;45513;-57
2022/10/30 07:33:45;;;;;;;;;11.67;11.67;;;;;16.70;67.68;100956.75;5035930;28;45465;-59
2022/10/30 07:36:11;;;;;;;;;17.67;15.00;;;;;16.79;67.61;100963.22;5022656;28;45491;-56
2022/10/30 07:38:37;;;;;;;;;12.00;12.00;;;;;16.78;67.05;100957.00;5002916;28;45451;-57
2022/10/30 07:41:02;;;;;;;;;12.33;12.00;;;;;16.89;66.65;100974.13;4996355;28;45265;-56
2022/10/30 07:43:28;;;;;;;;;19.00;14.00;;;;;16.94;66.97;100983.56;5013009;28;45375;-56
2022/10/30 07:45:53;;;;;;;;;14.67;12.33;;;;;16.95;66.76;100971.84;5015655;28;45514;-57
2022/10/30 07:48:18;;;;;;;;;15.33;13.33;;;;;16.99;66.98;100978.69;5023585;28;45657;-56
2022/10/30 07:50:44;;;;;;;;;12.00;12.00;;;;;17.02;66.52;100973.06;5015719;28;46419;-58
2022/10/30 07:53:09;;;;;;;;;16.67;12.33;;;;;17.02;66.25;100970.38;5015840;28;46075;-56
2022/10/30 07:55:34;;;;;;;;;17.00;13.33;;;;;17.02;66.51;100965.00;5013082;28;45517;-64
2022/10/30 07:58:00;;;;;;;;;16.00;13.00;;;;;17.06;66.01;100965.66;5014630;28;47515;-62
2022/10/30 08:00:25;;;;;;;;;13.67;12.67;;;;;17.02;65.84;100959.63;5017518;28;45527;-63
2022/10/30 08:02:55;;;;;;;;;14.67;12.00;;;;;17.12;65.51;100972.38;5005012;28;45973;-62
2022/10/30 08:05:21;;;;;;;;;21.00;14.67;;;;;17.10;65.70;100959.91;5014359;28;45438;-62
2022/10/30 08:07:47;;;;;;;;;14.00;12.00;;;;;17.18;65.19;100971.88;5015651;28;45688;-63
2022/10/30 08:10:12;;;;;;;;;12.67;12.33;;;;;17.14;64.62;100973.09;5015078;28;45398;-64
2022/10/30 08:12:40;;;;;;;;;10.00;8.33;;;;;17.18;64.55;100988.00;5011282;28;45986;-64
2022/10/30 08:15:07;;;;;;;;;15.67;13.00;;;;;17.21;64.44;100993.19;5022893;28;46573;-66
2022/10/30 08:17:39;;;;;;;;;12.67;12.33;;;;;17.16;63.90;100987.28;5024772;28;45573;-58
2022/10/30 08:20:05;;;;;;;;;11.00;8.67;;;;;17.18;63.82;100998.75;5023915;28;45389;-61
2022/10/30 08:22:31;;;;;;;;;13.00;13.00;;;;;17.19;63.94;101008.53;5033054;28;47324;-60
2022/10/30 08:24:56;;;;;;;;;14.00;11.00;;;;;17.29;63.88;101023.00;5038996;28;45383;-56
2022/10/30 08:27:21;;;;;;;;;12.67;9.33;;;;;17.29;64.13;101028.38;5039311;28;45588;-63
2022/10/30 08:29:47;;;;;;;;;17.33;13.00;;;;;17.34;64.36;101027.06;5038657;28;45513;-63
2022/10/30 08:32:12;;;;;;;;;12.67;12.00;;;;;17.39;63.56;101027.53;5025287;28;45423;-63
2022/10/30 08:34:37;;;;;;;;;14.33;12.33;;;;;17.43;63.45;101028.16;5017537;28;45441;-62
2022/10/30 08:37:03;;;;;;;;;12.33;11.67;;;;;17.47;63.04;101043.09;5018033;28;45425;-65
2022/10/30 08:39:28;;;;;;;;;11.67;9.33;;;;;17.48;63.40;101028.66;5030950;28;45475;-61
2022/10/30 08:41:57;;;;;;;;;13.33;12.33;;;;;17.57;63.38;101041.38;5039264;28;46348;-63
2022/10/30 08:44:22;;;;;;;;;14.33;11.67;;;;;17.52;62.50;101019.38;5034013;28;45336;-61
2022/10/30 08:46:48;;;;;;;;;10.67;10.67;;;;;17.58;62.70;101016.22;5018289;28;45324;-61
2022/10/30 08:49:13;;;;;;;;;9.67;8.00;;;;;17.57;62.23;101024.38;5018620;28;45529;-61
2022/10/30 08:51:38;;;;;;;;;3.00;1.00;;;;;17.54;62.11;101025.47;5019434;28;46224;-59
2022/10/30 08:54:07;;;;;;;;;16.00;11.67;;;;;17.66;62.16;101037.97;5019309;28;45450;-63
2022/10/30 08:56:32;;;;;;;;;16.00;12.67;;;;;17.71;62.27;101039.47;5025292;28;46113;-65
2022/10/30 08:58:58;;;;;;;;;12.00;12.00;;;;;17.72;61.80;101034.00;5039329;28;45425;-61
2022/10/30 09:01:23;;;;;;;;;12.00;12.00;;;;;17.76;62.10;101026.53;5039153;28;45278;-61
2022/10/30 09:03:48;;;;;;;;;9.00;7.67;;;;;17.78;61.88;101024.56;5037463;28;45304;-62
2022/10/30 09:06:14;;;;;;;;;15.00;11.33;;;;;17.81;61.91;101014.41;5038734;28;45396;-63
2022/10/30 09:08:39;;;;;;;;;11.33;11.33;;;;;17.88;61.63;101026.41;5026787;28;45573;-63
2022/10/30 09:11:05;;;;;;;;;14.33;13.00;;;;;17.90;61.61;101027.13;5035506;28;46420;-64
2022/10/30 09:13:30;;;;;;;;;13.67;12.33;;;;;17.93;61.55;101026.03;5038455;28;45594;-66
2022/10/30 09:16:03;;;;;;;;;17.00;13.00;;;;;17.89;61.63;101013.81;5038493;28;45304;-61
2022/10/30 09:18:28;;;;;;;;;13.67;9.00;;;;;17.97;61.28;101032.91;5018042;28;45461;-61
2022/10/30 09:20:54;;;;;;;;;13.33;13.33;;;;;17.95;61.15;101038.38;5003557;28;45413;-65
2022/10/30 09:23:19;;;;;;;;;15.00;13.33;;;;;18.02;61.15;101044.16;5018149;28;45258;-63
2022/10/30 09:25:45;;;;;;;;;11.00;11.00;;;;;18.01;60.43;101050.50;5033236;28;46927;-61
2022/10/30 09:28:10;;;;;;;;;16.67;14.00;;;;;18.02;60.86;101045.97;5017622;28;45442;-62
2022/10/30 09:30:35;;;;;;;;;15.67;13.67;;;;;18.05;61.72;101038.50;5027027;28;45502;-62
2022/10/30 09:33:01;;;;;;;;;11.67;11.33;;;;;18.13;60.51;101052.22;5036874;28;45323;-61
2022/10/30 09:35:28;;;;;;;;;12.00;12.00;;;;;18.16;60.78;101049.28;5022224;28;45456;-63
2022/10/30 09:37:54;;;;;;;;;14.33;10.67;;;;;18.27;60.42;101060.03;5017114;28;45708;-63
2022/10/30 09:40:30;;;;;;;;;11.67;11.67;;;;;18.33;60.40;101058.66;5018088;28;45375;-65
2022/10/30 09:43:14;;;;;;;;;14.00;12.33;;;;;18.37;60.01;101052.06;5027098;28;45607;-63
2022/10/30 09:45:43;;;;;;;;;11.67;9.00;;;;;18.45;59.82;101048.72;5025168;28;45759;-66
2022/10/30 09:48:33;;;;;;;;;10.67;10.67;;;;;18.59;59.56;101056.53;5022619;28;45316;-62
2022/10/30 09:51:27;;;;;;;;;16.67;11.67;;;;;18.70;58.68;101045.78;5018199;28;46407;-62
2022/10/30 09:54:11;;;;;;;;;11.67;11.67;;;;;18.73;58.25;101050.91;5015984;28;45484;-64
2022/10/30 09:56:55;;;;;;;;;11.00;11.00;;;;;18.81;58.08;101044.88;5017748;28;45514;-64
2022/10/30 09:59:39;;;;;;;;;9.33;9.33;;;;;18.92;57.93;101052.94;5017989;28;45315;-65
2022/10/30 10:02:10;;;;;;;;;11.00;9.33;;;;;18.99;56.31;101067.59;4999189;28;45302;-65
2022/10/30 10:04:42;;;;;;;;;10.67;9.33;;;;;19.00;56.60;101047.72;4997822;28;45353;-64
2022/10/30 10:07:26;;;;;;;;;11.33;8.67;;;;;19.08;56.89;101055.19;5016487;28;45422;-65
2022/10/30 10:09:57;;;;;;;;;8.50;8.50;;;;;19.13;56.65;101058.34;5018793;28;45317;-66
2022/10/30 10:12:32;;;;;;;;;11.00;10.33;;;;;19.19;56.87;101060.53;5017758;28;45448;-65
2022/10/30 10:15:01;;;;;;;;;10.00;9.33;;;;;19.29;56.65;101074.94;5017702;28;45412;-60
2022/10/30 10:17:35;;;;;;;;;10.00;10.00;;;;;19.40;56.83;101076.72;5012863;28;45418;-61
2022/10/30 10:20:04;;;;;;;;;11.00;8.33;;;;;19.45;56.11;101058.31;5030982;28;45319;-63
2022/10/30 10:22:45;;;;;;;;;8.67;8.67;;;;;19.47;56.70;101055.47;5015616;28;45390;-61
2022/10/30 10:25:16;;;;;;;;;11.67;9.67;;;;;19.48;56.36;101052.63;5015690;28;45317;-63
2022/10/30 10:27:52;;;;;;;;;9.33;9.33;;;;;19.51;56.23;101054.22;5017945;28;45383;-63
2022/10/30 10:30:20;;;;;;;;;11.67;10.33;;;;;19.52;56.47;101039.72;5019881;28;45455;-63
2022/10/30 10:33:08;;;;;;;;;10.00;9.67;;;;;19.62;56.04;101040.69;5018646;28;45908;-62
2022/10/30 10:36:05;;;;;;;;;13.00;11.33;;;;;19.61;56.34;101047.06;5002752;28;45300;-61
2022/10/30 10:39:00;;;;;;;;;9.67;9.67;;;;;19.64;56.26;101057.59;4998088;28;45340;-60
2022/10/30 10:42:00;;;;;;;;;10.00;9.00;;;;;19.66;56.23;101051.09;5009155;28;45428;-61
2022/10/30 10:44:38;;;;;;;;;10.33;8.33;;;;;19.72;56.28;101055.94;5007045;28;45333;-64
2022/10/30 10:47:09;;;;;;;;;9.00;9.00;;;;;19.77;55.92;101068.19;5021044;28;45464;-59
2022/10/30 10:50:19;;;;;;;;;9.33;8.00;;;;;19.74;56.10;101080.09;5011046;28;45488;-61
2022/10/30 10:52:59;;;;;;;;;13.67;9.33;;;;;19.77;56.28;101095.16;5012435;28;45383;-60
2022/10/30 10:55:32;;;;;;;;;14.00;10.67;;;;;19.82;56.28;101099.19;5016578;28;45344;-63
2022/10/30 10:58:06;;;;;;;;;11.33;8.33;;;;;19.84;56.37;101110.72;5024176;28;45557;-63
2022/10/30 11:00:32;;;;;;;;;8.00;6.00;;;;;19.87;56.34;101114.97;5029718;28;45513;-64
2022/10/30 11:03:13;;;;;;;;;9.00;9.00;;;;;19.79;56.57;101104.84;5036582;28;45403;-62
2022/10/30 11:06:00;;;;;;;;;15.00;12.00;;;;;19.79;56.56;101093.19;5034554;28;46479;-64
2022/10/30 11:08:31;;;;;;;;;8.00;8.00;;;;;19.77;56.69;101090.63;5016311;28;45529;-66
2022/10/30 11:11:02;;;;;;;;;9.00;7.00;;;;;19.82;56.34;101104.59;5016986;28;45288;-64
2022/10/30 11:13:35;;;;;;;;;12.00;9.00;;;;;19.94;57.05;101108.94;5017072;28;45582;-63
2022/10/30 11:16:00;;;;;;;;;11.00;10.00;;;;;20.13;56.31;101107.31;5018139;28;46466;-63
2022/10/30 11:18:25;;;;;;;;;13.33;10.33;;;;;20.24;56.08;101118.00;5035834;28;45448;-68